Automated Weather Station

Lita, Tayabas, Quezon


Readings

as of August 06, 2016 01:00 AM
Wind Speed
1.4 mm
Rainfall Amount
0 mm
Rainfall Intensity
0 mm
Air Temperature
mm
Wind Direction
293 mm
Air Humidity
88.4 mm

Data Source: PREDICT (Advanced Science and Technology Institute)

12 HOUR DATA

PREVIOUS DATA

From
To
DateTime Wind Speed Rain Amount Rain Intensity Air Temperature Air Pressure Wind Direction Air Humidity
October 31, 2013 12:15 PM 0 0 mm 0 0 0 0 0
October 31, 2013 12:00 PM 4.8 0 mm 0 29.7 990.42 128 62.1
October 31, 2013 11:45 AM 5 0 mm 0 29.7 990.55 115 63.7
October 31, 2013 11:30 AM 5.8 0 mm 0 29.4 990.82 123 63.1
October 31, 2013 11:15 AM 4.2 0 mm 0 29.4 990.95 120 62.3
October 31, 2013 11:00 AM 0 0 mm 0 0 0 0 0
October 31, 2013 10:45 AM 4.6 0 mm 0 29.5 991.22 146 60.1
October 31, 2013 10:30 AM 4 0 mm 0 30.2 991.22 132 59.4
October 31, 2013 10:15 AM 0 0 mm 0 0 0 0 0
October 31, 2013 10:00 AM 4.1 0 mm 0 28.9 991.62 101 60
October 31, 2013 09:45 AM 0 0 mm 0 0 0 0 0
October 31, 2013 09:30 AM 3.1 0 mm 0 28.1 991.75 83 62
October 31, 2013 09:15 AM 2.8 0 mm 0 27.5 991.62 75 66.4
October 31, 2013 09:00 AM 3.4 0 mm 0 26.9 991.75 12 67.7
October 31, 2013 08:45 AM 2.6 0 mm 0 26.2 991.75 29 69.8
October 31, 2013 08:30 AM 2.9 0 mm 0 25.7 991.88 52 73.4
October 31, 2013 08:15 AM 2.7 0 mm 0 25.5 992.02 116 75.2
October 31, 2013 08:00 AM 2.3 0 mm 0 24.7 991.88 168 77.8
October 31, 2013 07:00 AM 1.9 0 mm 0 22.4 991.62 84 82.2
October 31, 2013 06:00 AM 0.9 0 mm 0 21 990.82 272 89.2
October 31, 2013 05:00 AM 1.5 0 mm 0 21.1 990.69 7 89.2
October 31, 2013 04:00 AM 1.6 0 mm 0 21.1 990.15 322 87.6
October 31, 2013 03:00 AM 1.9 0 mm 0 21.4 990.42 283 87.1
October 31, 2013 02:00 AM 1.8 0 mm 0 21.6 991.09 268 87
October 31, 2013 01:00 AM 1.4 0 mm 0 22.5 991.62 271 83.6
October 31, 2013 12:00 AM 1 0 mm 0 23.2 992.15 238 80.6
October 30, 2013 11:00 PM 1.9 0 mm 0 24.3 992.42 299 80
October 30, 2013 10:00 PM 2.5 0 mm 0 24.8 992.95 346 77.6
October 30, 2013 09:00 PM 2.3 0 mm 0 24.9 993.22 359 76.7
October 30, 2013 08:00 PM 3.2 0 mm 0 25.3 992.82 337 74.2